Time;durP1;ratioP1;P1;durP2;ratioP2;P2;SDS_P1;SDS_P2;PMS_P1;PMS_P2;Temp;Humidity;BMP_temperature;BMP_pressure;BME280_temperature;BME280_humidity;BME280_pressure;Samples;Min_cycle;Max_cycle;Signal;HPM_P1;HPM_P2
2021/08/13 00:00:02;;;;;;;6.60;4.20;;;;;;;16.45;70.51;100994.62;1838645;76;21686;-70
2021/08/13 00:02:30;;;;;;;6.43;3.93;;;;;;;16.37;70.55;100994.72;1821388;77;21716;-70
2021/08/13 00:04:58;;;;;;;8.70;4.33;;;;;;;16.33;70.67;100992.89;1838064;76;22280;-70
2021/08/13 00:07:24;;;;;;;6.23;4.47;;;;;;;16.28;70.80;100992.92;1803170;77;21853;-71
2021/08/13 00:09:51;;;;;;;6.63;4.80;;;;;;;16.22;71.04;100986.77;1831086;77;21654;-71
2021/08/13 00:12:18;;;;;;;6.83;4.97;;;;;;;16.20;71.28;100992.20;1830133;76;21721;-71
2021/08/13 00:14:44;;;;;;;8.93;4.73;;;;;;;16.18;71.56;100988.43;1828124;76;21705;-71
2021/08/13 00:17:11;;;;;;;6.80;4.80;;;;;;;16.17;71.66;100985.48;1828370;77;22188;-71
2021/08/13 00:19:37;;;;;;;9.33;5.10;;;;;;;16.16;71.92;100996.81;1833410;76;22303;-71
2021/08/13 00:22:06;;;;;;;6.97;4.60;;;;;;;16.13;72.26;100991.98;1832613;76;21507;-72
2021/08/13 00:24:34;;;;;;;7.13;4.73;;;;;;;16.13;72.19;100994.68;1836060;76;21621;-72
2021/08/13 00:27:01;;;;;;;7.00;4.53;;;;;;;16.13;72.26;100990.64;1844174;76;22191;-72
2021/08/13 00:29:27;;;;;;;7.53;4.97;;;;;;;16.13;72.51;101002.77;1835586;76;21732;-72
2021/08/13 00:31:55;;;;;;;5.93;4.20;;;;;;;16.13;72.74;100999.27;1831021;77;22167;-71
2021/08/13 00:34:22;;;;;;;7.03;4.57;;;;;;;16.12;72.93;100989.56;1832498;76;21660;-72
2021/08/13 00:36:49;;;;;;;8.73;5.17;;;;;;;16.11;72.95;100990.11;1822338;77;21700;-71
2021/08/13 00:39:17;;;;;;;8.23;4.70;;;;;;;16.13;72.90;100989.84;1827582;76;21646;-71
2021/08/13 00:41:45;;;;;;;6.07;4.30;;;;;;;16.11;73.10;100991.45;1824523;77;21736;-71
2021/08/13 00:44:12;;;;;;;5.77;4.20;;;;;;;16.14;72.91;100991.44;1817412;76;21661;-70
2021/08/13 00:46:39;;;;;;;7.67;4.97;;;;;;;16.13;73.42;100991.98;1821547;76;21652;-71
2021/08/13 00:49:14;;;;;;;7.03;4.53;;;;;;;16.17;73.12;101003.00;1835845;76;21740;-71
2021/08/13 00:51:43;;;;;;;6.93;4.70;;;;;;;16.17;72.85;101003.80;1827628;77;21695;-72
2021/08/13 00:54:12;;;;;;;8.40;4.53;;;;;;;16.16;72.87;101004.89;1838573;76;21655;-72
2021/08/13 00:56:41;;;;;;;7.10;4.73;;;;;;;16.15;72.87;101009.20;1833396;76;21782;-72
2021/08/13 00:59:26;;;;;;;6.70;4.83;;;;;;;16.15;72.63;101009.20;1834649;76;21692;-72
2021/08/13 01:02:13;;;;;;;6.03;4.30;;;;;;;16.11;73.52;101018.95;1811054;76;22314;-72
2021/08/13 01:04:39;;;;;;;6.80;4.87;;;;;;;16.11;73.52;101018.95;1815065;77;22237;-71
2021/08/13 01:07:10;;;;;;;7.47;5.00;;;;;;;16.04;73.42;101011.19;1829401;76;21509;-71
2021/08/13 01:09:39;;;;;;;7.97;4.40;;;;;;;15.99;73.04;101015.81;1837186;77;21499;-71
2021/08/13 01:12:31;;;;;;;8.43;5.10;;;;;;;16.00;73.18;101020.94;1756232;79;21571;-71
2021/08/13 01:15:07;;;;;;;5.77;4.07;;;;;;;15.96;73.03;101023.94;1830510;77;21707;-70
2021/08/13 01:17:46;;;;;;;7.77;4.83;;;;;;;15.93;73.19;101020.45;1834632;76;21545;-72
2021/08/13 01:20:47;;;;;;;7.63;4.60;;;;;;;15.90;73.46;101017.77;1834280;77;21752;-71
2021/08/13 01:23:41;;;;;;;7.93;4.50;;;;;;;15.84;73.71;101017.55;1824775;76;21713;-70
2021/08/13 01:26:09;;;;;;;7.13;4.97;;;;;;;15.79;73.68;101024.84;1845768;77;21438;-70
2021/08/13 01:29:08;;;;;;;6.60;4.27;;;;;;;15.76;73.73;101029.45;1845557;76;21728;-71
2021/08/13 01:32:09;;;;;;;10.03;5.03;;;;;;;15.71;73.41;101026.26;1755889;80;21590;-72
2021/08/13 01:34:44;;;;;;;7.70;4.50;;;;;;;15.66;74.04;101028.45;1844020;76;21946;-73
2021/08/13 01:37:14;;;;;;;9.77;5.13;;;;;;;15.61;74.36;101027.09;1842697;77;21516;-73
2021/08/13 01:39:46;;;;;;;8.17;4.60;;;;;;;15.53;74.16;101023.66;1838126;76;21539;-72
2021/08/13 01:42:13;;;;;;;8.60;4.90;;;;;;;15.48;74.82;101032.55;1803346;77;21536;-73
2021/08/13 01:44:42;;;;;;;6.73;4.50;;;;;;;15.48;74.82;101032.55;1802047;77;21507;-73
2021/08/13 01:47:09;;;;;;;7.50;5.00;;;;;;;15.45;74.63;101030.96;1799242;77;21546;-73
2021/08/13 01:49:36;;;;;;;10.20;5.50;;;;;;;15.42;74.68;101026.13;1808359;77;21523;-74
2021/08/13 01:52:04;;;;;;;9.10;5.47;;;;;;;15.40;74.61;101035.02;1828615;77;21516;-74
2021/08/13 01:54:33;;;;;;;8.23;5.13;;;;;;;15.42;75.63;101048.47;1819354;77;22040;-73
2021/08/13 01:56:59;;;;;;;7.63;5.17;;;;;;;15.42;75.63;101048.47;1838978;77;21608;-73
2021/08/13 01:59:26;;;;;;;8.40;5.30;;;;;;;15.41;75.54;101048.75;1847017;77;21547;-71
2021/08/13 02:01:55;;;;;;;8.37;5.60;;;;;;;15.38;75.70;101062.77;1828182;76;21519;-71
2021/08/13 02:04:24;;;;;;;8.10;5.23;;;;;;;15.38;75.70;101062.77;1827060;77;21721;-71
2021/08/13 02:06:52;;;;;;;10.40;5.10;;;;;;;15.37;75.86;101061.97;1838050;76;21626;-71
2021/08/13 02:09:21;;;;;;;6.57;4.97;;;;;;;15.36;75.83;101066.27;1819476;78;21758;-70
2021/08/13 02:11:49;;;;;;;8.63;5.53;;;;;;;15.32;75.92;101063.32;1831090;76;21904;-70
2021/08/13 02:14:20;;;;;;;6.73;5.10;;;;;;;15.27;75.82;101063.36;1816602;77;21432;-70
2021/08/13 02:16:52;;;;;;;8.10;5.13;;;;;;;15.25;76.00;101069.00;1780820;79;21476;-71
2021/08/13 02:19:44;;;;;;;8.27;5.57;;;;;;;15.21;76.44;101066.60;1780316;79;22037;-71
2021/08/13 02:22:12;;;;;;;6.83;5.10;;;;;;;15.21;76.53;101074.67;1748047;79;21675;-72
2021/08/13 02:24:39;;;;;;;8.03;5.40;;;;;;;15.21;76.53;101074.67;1782017;79;21503;-72
2021/08/13 02:27:07;;;;;;;7.83;5.30;;;;;;;15.19;76.03;101070.64;1771759;80;22052;-72
2021/08/13 02:29:36;;;;;;;8.83;5.40;;;;;;;15.19;76.30;101075.48;1787710;80;21611;-73
2021/08/13 02:32:07;;;;;;;8.40;5.60;;;;;;;15.15;76.11;101079.80;1747973;80;21401;-70
2021/08/13 02:34:34;;;;;;;7.57;5.13;;;;;;;15.12;76.64;101074.17;1778973;78;21437;-71
2021/08/13 02:37:27;;;;;;;6.43;4.50;;;;;;;15.12;76.64;101074.17;1777734;78;21765;-72
2021/08/13 02:40:02;;;;;;;9.13;5.20;;;;;;;15.05;76.71;101089.80;1775924;79;21525;-74
2021/08/13 02:42:40;;;;;;;7.90;4.83;;;;;;;15.05;76.71;101089.80;1774049;78;21963;-73
2021/08/13 02:45:09;;;;;;;9.03;5.60;;;;;;;15.04;76.74;101096.24;1769481;79;21984;-74
2021/08/13 02:47:38;;;;;;;10.00;5.20;;;;;;;15.03;76.91;101095.44;1772478;80;22480;-73
2021/08/13 02:50:08;;;;;;;7.97;5.23;;;;;;;15.00;77.06;101098.67;1772001;78;21485;-74
2021/08/13 02:52:50;;;;;;;7.60;5.40;;;;;;;14.99;77.06;101100.56;1772004;78;21437;-70
2021/08/13 02:55:21;;;;;;;7.53;4.93;;;;;;;15.00;77.27;101104.89;1764817;80;21500;-73
2021/08/13 02:57:53;;;;;;;7.72;5.25;;;;;;;15.00;77.27;101104.89;1760386;80;21546;-72
2021/08/13 03:00:19;;;;;;;8.48;5.03;;;;;;;15.01;77.20;101099.77;1782695;78;21165;-73
2021/08/13 03:02:48;;;;;;;8.43;5.00;;;;;;;15.03;77.09;101099.48;1768460;79;21038;-71
2021/08/13 03:05:20;;;;;;;9.37;5.40;;;;;;;15.05;77.13;101099.22;1740540;80;21337;-73
2021/08/13 03:07:48;;;;;;;9.57;5.70;;;;;;;15.03;77.21;101096.78;1739870;81;21410;-70
2021/08/13 03:10:15;;;;;;;7.57;5.20;;;;;;;15.06;77.31;101106.20;1774170;78;21413;-72
2021/08/13 03:12:43;;;;;;;8.27;5.67;;;;;;;15.05;77.49;101101.37;1771495;79;22016;-72
2021/08/13 03:15:11;;;;;;;7.67;5.40;;;;;;;15.05;77.64;101098.67;1778184;78;21899;-72
2021/08/13 03:17:39;;;;;;;8.07;5.00;;;;;;;15.06;77.55;101101.63;1774016;78;21973;-73
2021/08/13 03:20:08;;;;;;;8.47;4.90;;;;;;;15.07;77.84;101099.22;1773278;78;21857;-72
2021/08/13 03:22:36;;;;;;;7.37;4.90;;;;;;;15.07;77.84;101099.22;1774365;79;21454;-72
2021/08/13 03:25:06;;;;;;;6.80;4.87;;;;;;;15.13;77.34;101104.83;1762120;80;21398;-72
2021/08/13 03:27:35;;;;;;;6.57;4.67;;;;;;;15.13;77.34;101104.83;1775751;79;21521;-72
2021/08/13 03:30:01;;;;;;;8.10;5.57;;;;;;;15.16;77.66;101104.28;1838442;76;21660;-71
2021/08/13 03:32:32;;;;;;;7.40;5.13;;;;;;;15.17;77.72;101099.19;1826974;77;21406;-72
2021/08/13 03:35:00;;;;;;;6.33;4.80;;;;;;;15.22;77.75;101102.39;1830981;76;21993;-71
2021/08/13 03:37:29;;;;;;;8.47;5.40;;;;;;;15.31;78.02;101116.89;1794854;77;21459;-71
2021/08/13 03:39:57;;;;;;;7.03;5.20;;;;;;;15.31;78.02;101116.89;1824772;76;21432;-72
2021/08/13 03:42:24;;;;;;;8.37;5.20;;;;;;;15.35;77.75;101115.80;1824893;76;21410;-71
2021/08/13 03:44:51;;;;;;;7.87;4.87;;;;;;;15.39;77.55;101115.51;1805627;77;21407;-70
2021/08/13 03:47:18;;;;;;;7.47;5.57;;;;;;;15.49;77.06;101110.08;1825664;77;21404;-72
2021/08/13 03:49:46;;;;;;;7.77;5.43;;;;;;;15.49;77.06;101110.08;1839188;76;21784;-72
2021/08/13 03:52:15;;;;;;;10.00;5.63;;;;;;;15.56;76.87;101118.66;1789386;78;21532;-71
2021/08/13 03:54:41;;;;;;;9.23;5.87;;;;;;;15.60;76.69;101117.05;1830445;76;22144;-72
2021/08/13 03:57:10;;;;;;;7.83;5.43;;;;;;;15.62;76.46;101116.75;1821871;76;21885;-71
2021/08/13 03:59:38;;;;;;;8.90;5.10;;;;;;;15.67;76.32;101121.61;1838933;76;21494;-72
2021/08/13 04:02:04;;;;;;;8.67;5.63;;;;;;;15.78;76.10;101130.98;1827800;77;21486;-71
2021/08/13 04:04:31;;;;;;;9.83;5.20;;;;;;;15.81;76.18;101132.58;1831324;76;21650;-72
2021/08/13 04:07:00;;;;;;;8.90;5.60;;;;;;;15.81;76.18;101132.58;1823771;77;21597;-71
2021/08/13 04:09:27;;;;;;;11.27;5.70;;;;;;;15.88;76.45;101133.62;1821273;77;21545;-72
2021/08/13 04:11:55;;;;;;;8.93;5.50;;;;;;;15.94;76.04;101136.55;1824527;76;21708;-70
2021/08/13 04:14:24;;;;;;;8.83;5.53;;;;;;;16.02;75.88;101135.95;1825520;77;21692;-71
2021/08/13 04:16:51;;;;;;;7.30;5.20;;;;;;;16.10;75.45;101134.58;1806283;77;22206;-70
2021/08/13 04:19:19;;;;;;;8.93;5.23;;;;;;;16.17;75.59;101129.13;1829851;77;21712;-71
2021/08/13 04:21:47;;;;;;;7.67;5.00;;;;;;;16.25;75.45;101126.36;1828592;76;21685;-71
2021/08/13 04:24:13;;;;;;;10.33;5.80;;;;;;;16.33;75.23;101131.72;1830377;76;21732;-71
2021/08/13 04:26:40;;;;;;;9.03;5.60;;;;;;;16.41;74.71;101133.25;1827979;77;21711;-70
2021/08/13 04:29:07;;;;;;;10.47;5.97;;;;;;;16.47;74.23;101138.06;1827243;76;22234;-71
2021/08/13 04:31:34;;;;;;;10.20;5.47;;;;;;;16.54;73.97;101134.50;1828308;76;21726;-71
2021/08/13 04:34:01;;;;;;;9.27;5.60;;;;;;;16.62;73.86;101146.04;1827695;77;21705;-71
2021/08/13 04:36:28;;;;;;;9.20;5.37;;;;;;;16.70;73.63;101145.96;1834002;76;21721;-72
2021/08/13 04:38:55;;;;;;;11.10;5.40;;;;;;;16.79;73.43;101147.55;1831812;76;22007;-72
2021/08/13 04:41:22;;;;;;;8.63;4.80;;;;;;;16.90;73.01;101148.25;1824310;77;21744;-71
2021/08/13 04:43:50;;;;;;;9.27;5.33;;;;;;;17.03;72.23;101146.23;1831932;76;21007;-71
2021/08/13 04:46:17;;;;;;;6.70;4.97;;;;;;;17.03;72.23;101146.23;1830888;76;20972;-72
2021/08/13 04:48:44;;;;;;;10.17;5.70;;;;;;;17.11;72.46;101147.77;1825898;76;21062;-69
2021/08/13 04:51:11;;;;;;;7.70;5.40;;;;;;;17.19;72.35;101146.33;1782194;79;21515;-72
2021/08/13 04:53:38;;;;;;;9.13;5.20;;;;;;;17.30;71.92;101151.05;1826985;76;21097;-71
2021/08/13 04:56:05;;;;;;;7.83;5.23;;;;;;;17.39;71.67;101154.73;1834459;77;21027;-72
2021/08/13 04:58:34;;;;;;;10.00;5.43;;;;;;;17.51;71.36;101157.84;1820098;76;21095;-72
2021/08/13 05:01:01;;;;;;;8.73;5.17;;;;;;;17.64;70.95;101159.59;1840740;76;21026;-73
2021/08/13 05:03:27;;;;;;;8.73;5.27;;;;;;;17.76;70.67;101169.41;1832718;77;21110;-72
2021/08/13 05:05:55;;;;;;;8.40;5.50;;;;;;;17.86;70.10;101167.16;1759385;79;21505;-71
2021/08/13 05:08:23;;;;;;;8.87;5.43;;;;;;;17.98;69.58;101169.69;1762951;79;21602;-72
2021/08/13 05:10:51;;;;;;;9.07;5.20;;;;;;;18.11;69.17;101167.36;1831658;76;21125;-74
2021/08/13 05:13:20;;;;;;;8.33;4.87;;;;;;;18.22;67.89;101176.92;1834004;76;21604;-72
2021/08/13 05:15:47;;;;;;;9.27;5.00;;;;;;;18.30;67.01;101172.22;1834323;76;21108;-72
2021/08/13 05:18:15;;;;;;;10.17;4.60;;;;;;;18.39;66.86;101170.42;1826478;77;21011;-70
2021/08/13 05:20:44;;;;;;;6.20;3.60;;;;;;;18.49;66.18;101166.23;1824933;76;21034;-71
2021/08/13 05:23:10;;;;;;;6.23;3.53;;;;;;;18.60;64.21;101168.77;1827309;77;22548;-70
2021/08/13 05:25:39;;;;;;;5.93;3.57;;;;;;;18.66;63.45;101165.69;1831092;77;21379;-71
2021/08/13 05:28:07;;;;;;;6.87;3.83;;;;;;;18.76;63.42;101166.09;1817772;76;21482;-72
2021/08/13 05:30:35;;;;;;;5.80;3.70;;;;;;;18.86;62.64;101176.74;1826772;77;21007;-71
2021/08/13 05:33:03;;;;;;;6.13;3.90;;;;;;;18.92;62.18;101170.67;1824585;76;21576;-70
2021/08/13 05:35:29;;;;;;;6.27;3.37;;;;;;;19.00;61.79;101165.14;1833669;77;21019;-71
2021/08/13 05:38:01;;;;;;;;;;;;;;;19.08;61.94;101170.64;1832700;76;21119;-71
2021/08/13 05:40:29;;;;;;;5.93;3.50;;;;;;;19.19;61.06;101169.92;1803521;77;21273;-70
2021/08/13 05:42:59;;;;;;;5.50;3.63;;;;;;;19.28;61.03;101180.84;1821769;76;21066;-70
2021/08/13 05:45:27;;;;;;;5.83;3.70;;;;;;;19.38;60.46;101176.06;1827939;76;21549;-72
2021/08/13 05:47:54;;;;;;;7.17;3.60;;;;;;;19.43;59.59;101174.59;1829878;76;21070;-69
2021/08/13 05:50:21;;;;;;;6.40;3.60;;;;;;;19.49;59.52;101175.30;1828478;77;21070;-70
2021/08/13 05:52:49;;;;;;;5.40;3.20;;;;;;;19.58;58.65;101188.95;1801775;77;21813;-70
2021/08/13 05:55:17;;;;;;;5.30;3.33;;;;;;;19.61;58.14;101191.03;1828252;76;21038;-69
2021/08/13 05:57:45;;;;;;;6.17;3.43;;;;;;;19.63;58.05;101192.89;1816562;76;21493;-68
2021/08/13 06:00:16;;;;;;;7.40;3.50;;;;;;;19.69;58.50;101195.78;1798546;76;21039;-72
2021/08/13 06:02:58;;;;;;;6.33;3.70;;;;;;;19.77;58.43;101195.62;1831197;76;21020;-71
2021/08/13 06:05:26;;;;;;;7.03;3.60;;;;;;;19.82;57.89;101192.26;1838380;76;21843;-70
2021/08/13 06:07:56;;;;;;;6.87;3.70;;;;;;;19.86;57.82;101206.80;1835204;76;21047;-70
2021/08/13 06:10:23;;;;;;;5.70;3.23;;;;;;;19.88;57.21;101194.31;1839217;76;21028;-70
2021/08/13 06:12:50;;;;;;;5.43;3.37;;;;;;;19.91;57.04;101195.06;1786072;79;21518;-71
2021/08/13 06:15:17;;;;;;;7.07;3.50;;;;;;;19.97;57.62;101188.40;1752212;80;21008;-70
2021/08/13 06:17:44;;;;;;;5.23;3.30;;;;;;;20.09;57.96;101191.39;1828966;76;21101;-72
2021/08/13 06:20:17;;;;;;;5.27;3.60;;;;;;;20.21;57.53;101194.14;1832590;76;21038;-72
2021/08/13 06:22:45;;;;;;;6.15;3.35;;;;;;;20.25;57.38;101193.20;1828836;77;21124;-70
2021/08/13 06:25:12;;;;;;;5.73;3.30;;;;;;;20.30;56.96;101192.28;1829241;77;20999;-70
2021/08/13 06:27:44;;;;;;;6.87;3.50;;;;;;;20.32;57.02;101200.36;1824075;76;21079;-70
2021/08/13 06:30:15;;;;;;;5.87;3.23;;;;;;;20.34;56.72;101192.73;1828887;77;21082;-71
2021/08/13 06:32:42;;;;;;;4.87;3.20;;;;;;;20.41;56.69;101197.73;1792118;77;21026;-72
2021/08/13 06:35:10;;;;;;;6.13;3.43;;;;;;;20.51;56.83;101199.44;1827772;77;21006;-72
2021/08/13 06:37:46;;;;;;;5.87;3.47;;;;;;;20.63;56.60;101196.94;1830938;76;21035;-72
2021/08/13 06:40:13;;;;;;;6.77;3.63;;;;;;;20.71;55.92;101202.20;1825359;77;20995;-73
2021/08/13 06:42:41;;;;;;;7.07;3.50;;;;;;;20.78;56.25;101197.14;1829117;76;21507;-72
2021/08/13 06:45:10;;;;;;;5.50;3.20;;;;;;;20.83;56.38;101192.39;1823968;77;21062;-73
2021/08/13 06:47:37;;;;;;;5.40;3.23;;;;;;;20.87;55.39;101195.28;1829795;76;21080;-72
2021/08/13 06:50:06;;;;;;;7.43;3.50;;;;;;;20.85;55.16;101198.29;1759576;80;21098;-72
2021/08/13 06:52:34;;;;;;;5.53;3.30;;;;;;;20.87;55.32;101188.49;1829382;76;21062;-73
2021/08/13 06:55:02;;;;;;;6.23;3.57;;;;;;;20.91;55.54;101175.89;1825233;77;21744;-76
2021/08/13 06:57:29;;;;;;;6.53;3.30;;;;;;;21.00;54.83;101183.53;1802245;76;21055;-71
2021/08/13 06:59:56;;;;;;;7.70;3.60;;;;;;;21.06;54.44;101189.08;1834008;76;21019;-72
2021/08/13 07:02:23;;;;;;;7.07;3.77;;;;;;;21.10;54.19;101191.97;1838477;76;21073;-72
2021/08/13 07:04:50;;;;;;;7.70;3.57;;;;;;;21.16;54.63;101191.25;1837859;76;21066;-74
2021/08/13 07:07:17;;;;;;;5.23;3.33;;;;;;;21.23;54.24;101189.70;1831349;76;21320;-74
2021/08/13 07:09:47;;;;;;;7.67;3.73;;;;;;;21.30;53.96;101195.48;1830557;76;21656;-73
2021/08/13 07:12:14;;;;;;;6.10;3.53;;;;;;;21.37;53.74;101195.63;1834260;76;21154;-73
2021/08/13 07:14:41;;;;;;;5.70;3.17;;;;;;;21.43;53.81;101199.24;1826172;76;21054;-73
2021/08/13 07:17:08;;;;;;;6.33;3.13;;;;;;;21.52;53.05;101197.92;1822597;77;21073;-73
2021/08/13 07:19:35;;;;;;;4.93;3.20;;;;;;;21.61;52.69;101200.09;1828082;76;21449;-72
2021/08/13 07:22:04;;;;;;;5.97;3.07;;;;;;;21.69;52.76;101202.05;1784610;79;21028;-72
2021/08/13 07:24:32;;;;;;;7.07;3.30;;;;;;;21.76;52.82;101203.73;1831789;76;21616;-71
2021/08/13 07:26:58;;;;;;;6.40;3.30;;;;;;;21.87;51.94;101204.79;1831316;76;21522;-73
2021/08/13 07:29:27;;;;;;;5.90;3.50;;;;;;;21.89;51.55;101198.48;1827896;76;21625;-72
2021/08/13 07:31:55;;;;;;;5.33;3.27;;;;;;;21.89;51.40;101199.84;1827612;76;21059;-73
2021/08/13 07:34:23;;;;;;;4.67;3.10;;;;;;;21.90;51.68;101198.72;1819115;77;22235;-74
2021/08/13 07:36:50;;;;;;;5.53;3.17;;;;;;;21.92;51.89;101196.49;1822398;77;20960;-72
2021/08/13 07:39:19;;;;;;;5.93;3.17;;;;;;;21.98;51.49;101191.94;1831618;77;21062;-72
2021/08/13 07:41:46;;;;;;;5.27;3.23;;;;;;;22.06;51.04;101193.06;1824822;77;21065;-73
2021/08/13 07:44:13;;;;;;;7.57;3.10;;;;;;;22.12;50.61;101193.71;1828931;77;21123;-72
2021/08/13 07:46:40;;;;;;;6.80;3.20;;;;;;;22.15;51.07;101193.91;1824903;77;20968;-71
2021/08/13 07:49:07;;;;;;;5.67;2.77;;;;;;;22.22;50.10;101197.50;1761422;79;21546;-73
2021/08/13 07:51:34;;;;;;;4.73;3.10;;;;;;;22.23;49.23;101191.73;1753644;79;21522;-72
2021/08/13 07:54:00;;;;;;;5.87;2.83;;;;;;;22.25;49.17;101184.62;1755804;80;20980;-71
2021/08/13 07:56:27;;;;;;;7.77;3.10;;;;;;;22.25;49.94;101188.70;1756343;80;21131;-70
2021/08/13 07:58:55;;;;;;;7.77;2.93;;;;;;;22.35;49.73;101185.66;1828013;77;21105;-72
2021/08/13 08:01:21;;;;;;;5.63;2.73;;;;;;;22.45;48.68;101188.05;1824252;77;21054;-71
2021/08/13 08:03:48;;;;;;;5.63;3.10;;;;;;;22.52;48.46;101193.00;1834941;76;21050;-71
2021/08/13 08:06:15;;;;;;;7.40;3.00;;;;;;;22.57;48.57;101190.66;1818290;77;21546;-71
2021/08/13 08:08:42;;;;;;;6.07;3.20;;;;;;;22.63;48.39;101192.89;1835843;76;21162;-71
2021/08/13 08:11:09;;;;;;;5.00;2.60;;;;;;;22.71;47.87;101187.22;1832835;77;21049;-72
2021/08/13 08:13:36;;;;;;;5.53;2.70;;;;;;;22.78;48.40;101184.00;1828876;77;21089;-73
2021/08/13 08:16:03;;;;;;;5.60;2.50;;;;;;;22.85;47.86;101188.38;1828238;76;21530;-74
2021/08/13 08:18:30;;;;;;;5.67;2.30;;;;;;;22.85;47.55;101188.38;1832098;77;21082;-71
2021/08/13 08:21:00;;;;;;;6.43;2.73;;;;;;;22.83;47.66;101185.97;1833614;76;21010;-73
2021/08/13 08:23:26;;;;;;;4.17;2.20;;;;;;;22.87;48.11;101183.42;1844253;76;20998;-71
2021/08/13 08:25:53;;;;;;;6.37;2.60;;;;;;;22.92;47.84;101198.21;1759424;79;21091;-72
2021/08/13 08:28:19;;;;;;;4.73;2.50;;;;;;;22.94;46.23;101182.38;1752737;79;21151;-72
2021/08/13 08:30:46;;;;;;;4.40;2.30;;;;;;;22.94;45.55;101180.45;1833699;77;21054;-72
2021/08/13 08:33:13;;;;;;;4.53;2.83;;;;;;;22.99;45.88;101178.67;1830644;77;22500;-71
2021/08/13 08:35:39;;;;;;;7.27;2.97;;;;;;;23.08;46.63;101174.00;1817605;76;21065;-72
2021/08/13 08:38:08;;;;;;;4.40;2.83;;;;;;;23.16;46.92;101191.69;1838847;77;21015;-71
2021/08/13 08:40:37;;;;;;;5.30;2.27;;;;;;;23.26;46.47;101182.89;1833392;76;20976;-72
2021/08/13 08:43:07;;;;;;;3.50;2.20;;;;;;;23.27;45.86;101190.75;1841867;77;21058;-73
2021/08/13 08:45:39;;;;;;;5.77;2.53;;;;;;;23.24;46.03;101185.16;1831384;76;21133;-73
2021/08/13 08:48:09;;;;;;;3.90;2.47;;;;;;;23.23;45.30;101186.27;1835324;77;21031;-71
2021/08/13 08:50:38;;;;;;;3.92;2.50;;;;;;;23.28;44.34;101196.44;1833527;77;21026;-71
2021/08/13 08:53:09;;;;;;;5.37;2.53;;;;;;;23.32;44.64;101195.21;1838067;76;21010;-73
2021/08/13 08:55:36;;;;;;;4.60;2.35;;;;;;;23.33;44.57;101180.45;1839936;77;21022;-72
2021/08/13 08:58:03;;;;;;;4.40;2.40;;;;;;;23.37;44.26;101201.86;1808873;77;21091;-70
2021/08/13 09:00:29;;;;;;;4.33;2.30;;;;;;;23.44;43.67;101183.05;1833602;76;21040;-73
2021/08/13 09:02:56;;;;;;;5.00;2.40;;;;;;;23.50;43.50;101189.92;1824633;76;21015;-71
2021/08/13 09:05:22;;;;;;;4.10;2.63;;;;;;;23.53;43.61;101190.63;1844526;77;21042;-72
2021/08/13 09:07:49;;;;;;;4.70;2.80;;;;;;;23.57;43.34;101193.50;1833839;77;21024;-72
2021/08/13 09:10:16;;;;;;;5.03;2.53;;;;;;;23.60;43.51;101186.02;1828015;76;21131;-73
2021/08/13 09:12:43;;;;;;;5.10;2.60;;;;;;;23.62;43.20;101183.17;1822711;77;21050;-74
2021/08/13 09:15:36;;;;;;;4.37;2.70;;;;;;;23.68;43.08;101178.37;1834189;76;21058;-71
2021/08/13 09:18:22;;;;;;;3.87;2.40;;;;;;;23.74;42.80;101174.89;1832431;76;21573;-72
2021/08/13 09:20:57;;;;;;;4.37;2.60;;;;;;;23.82;42.22;101169.93;1828220;76;21212;-72
2021/08/13 09:23:44;;;;;;;4.87;2.50;;;;;;;23.78;42.67;101171.73;1823478;77;21110;-72
2021/08/13 09:26:13;;;;;;;5.57;2.63;;;;;;;23.82;43.02;101176.20;1824944;76;21589;-72
2021/08/13 09:29:01;;;;;;;5.40;2.70;;;;;;;23.95;43.52;101174.33;1823887;77;20983;-73
2021/08/13 09:31:41;;;;;;;5.20;2.80;;;;;;;24.13;43.51;101170.13;1831091;76;21045;-71
2021/08/13 09:34:10;;;;;;;6.97;3.50;;;;;;;24.24;43.56;101187.11;1822110;77;21021;-73
2021/08/13 09:36:53;;;;;;;5.97;2.73;;;;;;;24.32;43.03;101173.17;1828187;76;21261;-71
2021/08/13 09:39:31;;;;;;;5.87;2.90;;;;;;;24.41;43.50;101169.80;1829612;77;21147;-71
2021/08/13 09:41:59;;;;;;;4.53;2.70;;;;;;;24.59;43.38;101173.75;1833511;76;21003;-73
2021/08/13 09:44:33;;;;;;;5.23;3.07;;;;;;;24.70;42.21;101166.71;1823895;77;21050;-72
2021/08/13 09:47:06;;;;;;;5.37;2.73;;;;;;;24.75;41.93;101167.88;1835824;77;21030;-72
2021/08/13 09:49:35;;;;;;;5.63;2.97;;;;;;;24.78;41.25;101178.12;1830596;76;22236;-71
2021/08/13 09:52:12;;;;;;;4.50;2.77;;;;;;;24.79;41.43;101179.71;1825195;77;21052;-72
2021/08/13 09:54:40;;;;;;;5.07;3.00;;;;;;;24.84;41.56;101169.91;1834588;76;21344;-72
2021/08/13 09:57:10;;;;;;;5.10;3.00;;;;;;;24.82;41.04;101176.30;1841565;76;21160;-71
2021/08/13 09:59:37;;;;;;;4.87;2.93;;;;;;;24.77;41.50;101174.57;1838874;77;20979;-72
2021/08/13 10:02:14;;;;;;;3.90;2.50;;;;;;;24.72;42.00;101183.57;1826628;76;21120;-73
2021/08/13 10:04:42;;;;;;;5.00;2.77;;;;;;;24.66;41.77;101176.72;1819462;76;21070;-72
2021/08/13 10:07:10;;;;;;;5.00;2.33;;;;;;;24.63;41.42;101178.19;1841917;76;21048;-71
2021/08/13 10:09:37;;;;;;;5.60;2.43;;;;;;;24.69;40.74;101176.05;1843037;77;21051;-71
2021/08/13 10:12:08;;;;;;;4.70;2.43;;;;;;;24.86;41.15;101181.31;1835173;76;21109;-71
2021/08/13 10:14:41;;;;;;;6.30;2.73;;;;;;;25.01;40.71;101176.57;1826533;77;21018;-74
2021/08/13 10:17:18;;;;;;;4.83;2.60;;;;;;;25.09;40.14;101174.86;1782219;79;21292;-71
2021/08/13 10:19:51;;;;;;;3.70;2.53;;;;;;;25.19;40.72;101176.37;1783753;79;21151;-72
2021/08/13 10:22:20;;;;;;;3.70;2.40;;;;;;;25.27;39.78;101174.09;1824466;77;21002;-72
2021/08/13 10:24:50;;;;;;;6.60;2.53;;;;;;;25.19;39.64;101169.55;1829974;76;21064;-70
2021/08/13 10:27:18;;;;;;;4.10;2.63;;;;;;;24.99;38.63;101174.73;1824455;77;21569;-70
2021/08/13 10:29:47;;;;;;;3.20;2.40;;;;;;;24.89;38.50;101173.02;1842569;76;21067;-72
2021/08/13 10:32:19;;;;;;;4.37;2.53;;;;;;;24.94;38.66;101165.95;1829941;77;20983;-71
2021/08/13 10:34:47;;;;;;;4.23;2.77;;;;;;;25.04;39.00;101169.61;1832457;76;21488;-72
2021/08/13 10:37:14;;;;;;;7.20;2.50;;;;;;;25.13;38.78;101175.01;1826678;77;21035;-71
2021/08/13 10:39:44;;;;;;;3.95;2.55;;;;;;;25.16;39.24;101181.95;1848827;76;21030;-70
2021/08/13 10:42:17;;;;;;;6.47;2.67;;;;;;;25.21;38.30;101168.07;1835251;76;21021;-72
2021/08/13 10:45:01;;;;;;;5.92;2.60;;;;;;;25.29;38.67;101170.45;1827952;77;28221;-71
2021/08/13 10:47:32;;;;;;;4.47;2.50;;;;;;;25.37;37.64;101161.90;1831070;76;21062;-71
2021/08/13 10:50:00;;;;;;;4.73;2.47;;;;;;;25.46;37.00;101170.21;1754733;80;21015;-69
2021/08/13 10:52:38;;;;;;;5.20;2.77;;;;;;;25.47;36.97;101169.09;1824352;76;21515;-72
2021/08/13 10:55:08;;;;;;;5.93;2.60;;;;;;;25.51;37.53;101165.10;1821426;77;21644;-71
2021/08/13 10:57:53;;;;;;;5.50;3.17;;;;;;;25.52;37.60;101168.05;1836043;77;21038;-71
2021/08/13 11:00:21;;;;;;;3.93;2.53;;;;;;;25.51;37.32;101178.78;1838917;76;21357;-71
2021/08/13 11:03:21;;;;;;;5.83;2.90;;;;;;;25.50;37.43;101164.30;1824300;76;21083;-71
2021/08/13 11:05:55;;;;;;;5.58;3.40;;;;;;;25.58;37.35;101168.63;1827661;77;21196;-71
2021/08/13 11:08:46;;;;;;;4.63;2.70;;;;;;;25.71;36.73;101167.47;1749487;79;21556;-74
2021/08/13 11:11:14;;;;;;;5.03;2.80;;;;;;;25.76;36.24;101167.21;1835740;77;21035;-73
2021/08/13 11:13:42;;;;;;;5.37;2.67;;;;;;;25.76;36.56;101164.48;1753969;79;21125;-73
2021/08/13 11:16:32;;;;;;;5.43;2.53;;;;;;;25.76;36.12;101172.69;1826440;76;21093;-72
2021/08/13 11:19:07;;;;;;;3.87;2.60;;;;;;;25.77;36.62;101171.56;1831534;76;21053;-73
2021/08/13 11:21:47;;;;;;;4.50;2.50;;;;;;;25.84;35.54;101164.16;1821257;76;21067;-73
2021/08/13 11:24:14;;;;;;;5.07;3.00;;;;;;;25.89;36.75;101163.91;1825938;77;21542;-73
2021/08/13 11:26:54;;;;;;;4.30;2.55;;;;;;;25.96;36.28;101166.30;1829414;77;21042;-73
2021/08/13 11:29:33;;;;;;;5.73;2.80;;;;;;;25.95;35.95;101165.27;1832520;76;21046;-72
2021/08/13 11:32:09;;;;;;;4.37;2.60;;;;;;;25.96;35.54;101164.94;1818044;76;21557;-72
2021/08/13 11:34:45;;;;;;;4.40;2.40;;;;;;;26.02;35.33;101158.63;1792947;77;21049;-73
2021/08/13 11:37:34;;;;;;;4.87;2.97;;;;;;;26.08;35.51;101158.61;1829572;76;20996;-74